createdAt,value
2018-10-17T00:01:15.272Z,9.80
2018-10-17T00:03:43.254Z,9.90
2018-10-17T00:06:11.308Z,9.90
2018-10-17T00:08:39.472Z,9.80
2018-10-17T00:11:07.739Z,9.80
2018-10-17T00:13:35.747Z,9.80
2018-10-17T00:16:04.056Z,9.80
2018-10-17T00:18:32.485Z,9.80
2018-10-17T00:21:00.733Z,9.80
2018-10-17T00:23:28.799Z,9.70
2018-10-17T00:25:56.875Z,9.70
2018-10-17T00:28:24.969Z,9.70
2018-10-17T00:30:53.021Z,9.70
2018-10-17T00:33:21.133Z,9.60
2018-10-17T00:35:49.247Z,9.50
2018-10-17T00:38:17.520Z,9.40
2018-10-17T00:40:45.665Z,9.20
2018-10-17T00:43:13.957Z,9.10
2018-10-17T00:45:41.977Z,9.40
2018-10-17T00:48:10.164Z,9.20
2018-10-17T00:50:38.438Z,9.40
2018-10-17T00:53:06.948Z,9.40
2018-10-17T00:55:35.120Z,9.40
2018-10-17T00:58:03.377Z,9.40
2018-10-17T01:00:31.642Z,9.30
2018-10-17T01:02:59.837Z,9.30
2018-10-17T01:05:27.910Z,9.40
2018-10-17T01:07:56.233Z,9.30
2018-10-17T01:10:24.401Z,9.30
2018-10-17T01:12:52.582Z,9.20
2018-10-17T01:15:20.821Z,9.10
2018-10-17T01:17:48.921Z,9.00
2018-10-17T01:20:16.958Z,8.90
2018-10-17T01:22:45.069Z,8.90
2018-10-17T01:25:13.280Z,8.50
2018-10-17T01:27:41.374Z,8.90
2018-10-17T01:30:09.623Z,8.90
2018-10-17T01:32:37.687Z,8.90
2018-10-17T01:35:06.734Z,8.90
2018-10-17T01:37:34.949Z,8.90
2018-10-17T01:40:03.168Z,8.80
2018-10-17T01:42:31.211Z,8.70
2018-10-17T01:44:59.491Z,8.70
2018-10-17T01:47:27.631Z,8.60
2018-10-17T01:49:55.749Z,8.50
2018-10-17T01:52:23.905Z,8.50
2018-10-17T01:54:51.975Z,8.40
2018-10-17T01:57:20.037Z,8.40
2018-10-17T01:59:48.235Z,8.40
2018-10-17T02:02:16.618Z,8.40
2018-10-17T02:04:44.743Z,8.40
2018-10-17T02:07:12.947Z,8.50
2018-10-17T02:09:42.085Z,8.60
2018-10-17T02:12:10.273Z,8.60
2018-10-17T02:14:38.541Z,8.60
2018-10-17T02:17:07.610Z,8.60
2018-10-17T02:19:35.696Z,8.50
2018-10-17T02:22:03.781Z,8.40
2018-10-17T02:24:31.984Z,8.40
2018-10-17T02:27:00.292Z,8.30
2018-10-17T02:29:28.491Z,8.30
2018-10-17T02:31:57.552Z,8.20
2018-10-17T02:37:25.470Z,8.20
2018-10-17T02:39:53.695Z,8.30
2018-10-17T02:42:21.912Z,8.20
2018-10-17T02:44:50.093Z,8.40
2018-10-17T02:47:18.234Z,8.50
2018-10-17T02:49:46.340Z,8.50
2018-10-17T02:52:14.486Z,8.60
2018-10-17T02:54:43.680Z,8.60
2018-10-17T02:57:11.819Z,8.70
2018-10-17T02:59:40.034Z,8.70
2018-10-17T03:02:08.247Z,8.60
2018-10-17T03:04:36.332Z,8.60
2018-10-17T03:07:04.600Z,8.60
2018-10-17T03:09:32.760Z,8.60
2018-10-17T03:12:00.902Z,8.50
2018-10-17T03:14:29.082Z,8.50
2018-10-17T03:16:57.277Z,8.50
2018-10-17T03:19:25.454Z,8.50
2018-10-17T03:21:53.622Z,8.60
2018-10-17T03:24:21.697Z,8.60
2018-10-17T03:26:49.911Z,8.70
2018-10-17T03:29:18.223Z,8.70
2018-10-17T03:31:46.340Z,8.80
2018-10-17T03:34:14.475Z,8.80
2018-10-17T03:36:42.527Z,8.70
2018-10-17T03:39:11.663Z,8.60
2018-10-17T03:41:39.824Z,8.60
2018-10-17T03:44:08.401Z,8.60
2018-10-17T03:46:36.467Z,8.60
2018-10-17T03:49:05.648Z,8.60
2018-10-17T03:51:33.859Z,8.70
2018-10-17T03:54:05.060Z,8.70
2018-10-17T03:56:33.216Z,8.70
2018-10-17T03:59:01.533Z,8.60
2018-10-17T04:01:31.282Z,8.60
2018-10-17T04:03:59.440Z,8.60
2018-10-17T04:06:27.605Z,8.60
2018-10-17T04:08:55.704Z,8.50
2018-10-17T04:11:23.895Z,8.50
2018-10-17T04:13:51.971Z,8.50
2018-10-17T04:16:20.220Z,8.60
2018-10-17T04:18:48.333Z,8.60
2018-10-17T04:21:16.472Z,8.70
2018-10-17T04:23:44.665Z,8.70
2018-10-17T04:26:12.840Z,8.80
2018-10-17T04:28:41.018Z,8.80
2018-10-17T04:31:14.295Z,8.80
2018-10-17T04:33:42.494Z,8.90
2018-10-17T04:36:10.727Z,8.40
2018-10-17T04:38:38.853Z,8.80
2018-10-17T04:41:07.382Z,8.80
2018-10-17T04:43:35.574Z,8.80
2018-10-17T04:46:03.697Z,8.70
2018-10-17T04:48:32.078Z,8.70
2018-10-17T04:51:00.300Z,8.70
2018-10-17T04:53:28.454Z,8.70
2018-10-17T04:55:56.623Z,8.70
2018-10-17T04:58:24.746Z,8.70
2018-10-17T05:00:52.928Z,8.60
2018-10-17T05:03:21.050Z,8.50
2018-10-17T05:05:49.198Z,8.60
2018-10-17T05:08:17.329Z,8.60
2018-10-17T05:10:45.505Z,8.60
2018-10-17T05:13:13.666Z,8.60
2018-10-17T05:15:42.002Z,8.50
2018-10-17T05:18:10.198Z,8.50
2018-10-17T05:20:40.642Z,8.50
2018-10-17T05:23:09.853Z,8.60
2018-10-17T05:25:37.987Z,8.60
2018-10-17T05:28:06.701Z,8.60
2018-10-17T05:30:35.176Z,8.60
2018-10-17T05:33:03.399Z,8.70
2018-10-17T05:35:31.439Z,8.70
2018-10-17T05:37:59.608Z,8.70
2018-10-17T05:40:27.739Z,8.70
2018-10-17T05:42:55.963Z,8.60
2018-10-17T05:45:24.074Z,8.70
2018-10-17T05:47:52.251Z,8.70
2018-10-17T05:50:20.475Z,8.80
2018-10-17T05:52:48.681Z,8.80
2018-10-17T05:55:17.000Z,8.80
2018-10-17T05:57:45.121Z,8.90
2018-10-17T06:00:13.361Z,8.80
2018-10-17T06:02:41.569Z,8.80
2018-10-17T06:05:09.827Z,8.80
2018-10-17T06:07:37.887Z,8.70
2018-10-17T06:10:07.815Z,8.70
2018-10-17T06:12:35.975Z,7.90
2018-10-17T06:15:04.775Z,8.80
2018-10-17T06:17:32.906Z,8.80
2018-10-17T06:20:01.105Z,8.80
2018-10-17T06:22:29.293Z,8.70
2018-10-17T06:24:57.480Z,8.60
2018-10-17T06:27:25.627Z,8.70
2018-10-17T06:29:53.831Z,8.70
2018-10-17T06:32:21.979Z,8.70
2018-10-17T06:34:50.092Z,8.70
2018-10-17T06:37:18.351Z,8.60
2018-10-17T06:39:46.438Z,8.60
2018-10-17T06:42:14.538Z,8.70
2018-10-17T06:44:43.633Z,8.70
2018-10-17T06:47:11.775Z,8.80
2018-10-17T06:49:41.043Z,8.80
2018-10-17T06:52:09.174Z,8.80
2018-10-17T06:54:37.457Z,8.90
2018-10-17T06:57:06.499Z,8.90
2018-10-17T06:59:34.769Z,9.00
2018-10-17T07:02:02.988Z,9.00
2018-10-17T07:04:31.260Z,9.10
2018-10-17T07:06:59.482Z,9.10
2018-10-17T07:09:27.831Z,9.20
2018-10-17T07:11:55.973Z,9.30
2018-10-17T07:14:24.176Z,9.30
2018-10-17T07:16:52.373Z,9.50
2018-10-17T07:19:20.467Z,9.50
2018-10-17T07:21:48.624Z,9.60
2018-10-17T07:24:16.780Z,9.60
2018-10-17T07:26:44.903Z,9.60
2018-10-17T07:29:13.086Z,9.60
2018-10-17T07:31:41.196Z,9.60
2018-10-17T07:34:09.362Z,9.70
2018-10-17T07:36:37.515Z,9.60
2018-10-17T07:39:08.363Z,9.80
2018-10-17T07:41:36.561Z,9.70
2018-10-17T07:44:05.182Z,10.00
2018-10-17T07:46:33.461Z,10.20
2018-10-17T07:49:01.672Z,10.20
2018-10-17T07:51:29.829Z,10.30
2018-10-17T07:53:58.061Z,10.40
2018-10-17T07:56:26.247Z,10.50
2018-10-17T07:58:54.429Z,10.50
2018-10-17T08:01:22.609Z,10.60
2018-10-17T08:03:50.766Z,10.80
2018-10-17T08:06:18.967Z,10.90
2018-10-17T08:08:47.137Z,11.10
2018-10-17T08:11:15.370Z,11.10
2018-10-17T08:13:43.578Z,11.50
2018-10-17T08:16:12.178Z,12.00
2018-10-17T08:18:40.370Z,12.40
2018-10-17T08:21:08.736Z,12.50
2018-10-17T08:23:36.866Z,12.80
2018-10-17T08:26:05.147Z,12.40
2018-10-17T08:28:33.298Z,12.90
2018-10-17T08:31:01.563Z,12.90
2018-10-17T08:33:29.768Z,13.40
2018-10-17T08:35:58.059Z,13.40
2018-10-17T08:38:26.096Z,13.40
2018-10-17T08:40:54.258Z,13.40
2018-10-17T08:43:22.314Z,13.00
2018-10-17T08:45:50.452Z,13.20
2018-10-17T08:48:18.601Z,13.20
2018-10-17T08:50:46.768Z,13.20
2018-10-17T08:53:14.849Z,13.00
2018-10-17T08:55:42.925Z,12.50
2018-10-17T08:58:11.041Z,12.80
2018-10-17T09:00:39.259Z,12.90
2018-10-17T09:03:07.412Z,12.90
2018-10-17T09:05:35.599Z,13.10
2018-10-17T09:08:03.780Z,13.20
2018-10-17T09:10:31.939Z,13.40
2018-10-17T09:13:00.206Z,13.50
2018-10-17T09:15:28.320Z,13.60
2018-10-17T09:17:56.445Z,13.70
2018-10-17T09:20:24.810Z,13.70
2018-10-17T09:22:52.696Z,13.80
2018-10-17T09:25:20.854Z,13.50
2018-10-17T09:27:49.037Z,13.80
2018-10-17T09:30:17.286Z,13.40
2018-10-17T09:32:45.484Z,13.90
2018-10-17T09:35:13.758Z,14.10
2018-10-17T09:37:41.814Z,14.20
2018-10-17T09:40:10.659Z,14.40
2018-10-17T09:42:39.540Z,14.40
2018-10-17T09:45:08.583Z,14.60
2018-10-17T09:47:36.738Z,14.80
2018-10-17T09:50:06.136Z,14.80
2018-10-17T09:52:34.198Z,14.90
2018-10-17T09:55:02.423Z,15.10
2018-10-17T09:57:30.548Z,15.30
2018-10-17T09:59:58.834Z,15.30
2018-10-17T10:02:27.047Z,15.40
2018-10-17T10:04:55.177Z,15.50
2018-10-17T10:07:23.242Z,15.60
2018-10-17T10:09:51.427Z,15.80
2018-10-17T10:12:19.582Z,16.10
2018-10-17T10:14:47.722Z,16.30
2018-10-17T10:17:15.952Z,16.40
2018-10-17T10:19:44.142Z,16.60
2018-10-17T10:22:12.373Z,16.10
2018-10-17T10:24:40.570Z,16.90
2018-10-17T10:27:08.663Z,17.10
2018-10-17T10:29:36.848Z,17.20
2018-10-17T10:32:05.090Z,17.40
2018-10-17T10:34:33.272Z,17.70
2018-10-17T10:37:01.436Z,18.00
2018-10-17T10:39:30.233Z,18.30
2018-10-17T10:41:58.427Z,18.80
2018-10-17T10:44:26.620Z,19.90
2018-10-17T10:46:54.829Z,21.50
2018-10-17T10:49:23.046Z,22.60
2018-10-17T10:51:51.184Z,23.80
2018-10-17T10:54:19.342Z,25.20
2018-10-17T10:56:48.573Z,26.60
2018-10-17T10:59:16.815Z,27.30
2018-10-17T11:01:44.813Z,28.30
2018-10-17T11:04:12.926Z,28.70
2018-10-17T11:06:41.163Z,29.40
2018-10-17T11:09:09.810Z,29.90
2018-10-17T11:11:38.373Z,30.70
2018-10-17T11:14:07.136Z,31.00
2018-10-17T11:16:35.202Z,31.50
2018-10-17T11:19:03.350Z,31.80
2018-10-17T11:21:31.826Z,32.10
2018-10-17T11:23:59.991Z,32.40
2018-10-17T11:26:28.151Z,32.60
2018-10-17T11:28:56.436Z,32.70
2018-10-17T11:31:24.679Z,33.20
2018-10-17T11:33:52.810Z,33.10
2018-10-17T11:36:21.000Z,32.80
2018-10-17T11:38:49.143Z,33.00
2018-10-17T11:41:17.362Z,33.10
2018-10-17T11:43:45.723Z,33.30
2018-10-17T11:46:13.903Z,33.80
2018-10-17T11:48:42.078Z,33.80
2018-10-17T11:51:10.349Z,34.00
2018-10-17T11:53:39.185Z,33.60
2018-10-17T11:56:07.375Z,33.50
2018-10-17T11:58:35.532Z,33.80
2018-10-17T12:01:04.099Z,33.20
2018-10-17T12:03:32.371Z,33.80
2018-10-17T12:06:00.489Z,33.90
2018-10-17T12:08:28.613Z,33.80
2018-10-17T12:10:56.775Z,33.60
2018-10-17T12:13:24.953Z,33.50
2018-10-17T12:15:53.122Z,33.70
2018-10-17T12:18:21.297Z,33.50
2018-10-17T12:20:49.445Z,33.10
2018-10-17T12:23:17.583Z,33.30
2018-10-17T12:25:46.585Z,33.50
2018-10-17T12:28:14.834Z,33.70
2018-10-17T12:30:43.027Z,33.80
2018-10-17T12:33:11.287Z,33.50
2018-10-17T12:35:39.509Z,33.10
2018-10-17T12:38:07.733Z,32.70
2018-10-17T12:40:36.203Z,32.40
2018-10-17T12:43:04.250Z,31.90
2018-10-17T12:45:32.532Z,32.20
2018-10-17T12:48:00.728Z,32.10
2018-10-17T12:50:28.912Z,31.60
2018-10-17T12:52:57.234Z,31.70
2018-10-17T12:55:25.153Z,32.10
2018-10-17T12:57:53.276Z,32.60
2018-10-17T13:00:22.093Z,33.10
2018-10-17T13:02:50.383Z,33.20
2018-10-17T13:05:18.665Z,33.20
2018-10-17T13:07:46.846Z,33.10
2018-10-17T13:10:15.120Z,33.00
2018-10-17T13:12:43.589Z,32.60
2018-10-17T13:15:13.076Z,32.30
2018-10-17T13:17:42.347Z,31.50
2018-10-17T13:20:10.496Z,31.50
2018-10-17T13:22:38.662Z,31.50
2018-10-17T13:25:07.020Z,31.80
2018-10-17T13:27:35.080Z,31.80
2018-10-17T13:30:03.851Z,31.50
2018-10-17T13:32:32.045Z,31.50
2018-10-17T13:35:00.307Z,31.30
2018-10-17T13:37:28.472Z,31.40
2018-10-17T13:39:56.664Z,31.50
2018-10-17T13:42:24.872Z,31.50
2018-10-17T13:44:53.631Z,31.40
2018-10-17T13:47:22.767Z,31.70
2018-10-17T13:49:51.062Z,32.00
2018-10-17T13:52:19.301Z,31.60
2018-10-17T13:54:47.590Z,31.70
2018-10-17T13:57:15.756Z,31.10
2018-10-17T13:59:43.939Z,31.10
2018-10-17T14:02:12.103Z,31.30
2018-10-17T14:04:40.296Z,31.50
2018-10-17T14:07:08.597Z,31.50
2018-10-17T14:09:36.698Z,31.30
2018-10-17T14:12:05.667Z,31.20
2018-10-17T14:14:33.918Z,31.20
2018-10-17T14:17:02.114Z,31.00
2018-10-17T14:19:30.353Z,30.50
2018-10-17T14:21:58.548Z,30.20
2018-10-17T14:24:26.722Z,30.20
2018-10-17T14:26:55.090Z,30.20
2018-10-17T14:29:23.236Z,29.90
2018-10-17T14:31:51.382Z,29.40
2018-10-17T14:34:19.605Z,29.30
2018-10-17T14:36:47.803Z,28.80
2018-10-17T14:39:16.083Z,28.70
2018-10-17T14:41:44.207Z,28.80
2018-10-17T14:44:13.026Z,28.50
2018-10-17T14:46:41.354Z,28.30
2018-10-17T14:49:09.443Z,28.00
2018-10-17T14:51:37.604Z,27.60
2018-10-17T14:54:06.004Z,27.30
2018-10-17T14:56:34.189Z,27.00
2018-10-17T14:59:02.341Z,26.30
2018-10-17T15:01:31.253Z,26.10
2018-10-17T15:03:59.384Z,25.80
2018-10-17T15:06:27.624Z,25.50
2018-10-17T15:08:55.846Z,24.70
2018-10-17T15:11:24.206Z,24.70
2018-10-17T15:13:52.107Z,24.30
2018-10-17T15:16:20.362Z,24.00
2018-10-17T15:18:48.516Z,23.80
2018-10-17T15:21:17.152Z,23.60
2018-10-17T15:23:45.241Z,23.30
2018-10-17T15:26:13.457Z,23.10
2018-10-17T15:28:41.678Z,22.90
2018-10-17T15:31:09.984Z,22.60
2018-10-17T15:33:38.107Z,22.40
2018-10-17T15:36:06.482Z,22.30
2018-10-17T15:38:34.650Z,22.10
2018-10-17T15:41:02.965Z,21.70
2018-10-17T15:43:31.167Z,21.70
2018-10-17T15:45:59.249Z,21.50
2018-10-17T15:48:27.500Z,21.30
2018-10-17T15:50:55.793Z,21.10
2018-10-17T15:53:24.158Z,21.00
2018-10-17T15:55:52.342Z,20.80
2018-10-17T15:58:20.581Z,20.60
2018-10-17T16:00:48.784Z,20.50
2018-10-17T16:03:16.949Z,19.70
2018-10-17T16:05:45.123Z,20.10
2018-10-17T16:08:13.399Z,20.00
2018-10-17T16:10:41.545Z,19.80
2018-10-17T16:13:09.807Z,19.70
2018-10-17T16:15:39.653Z,19.50
2018-10-17T16:18:09.353Z,19.40
2018-10-17T16:20:39.611Z,19.30
2018-10-17T16:23:08.035Z,19.10
2018-10-17T16:25:36.166Z,19.00
2018-10-17T16:28:04.395Z,18.70
2018-10-17T16:30:32.605Z,18.70
2018-10-17T16:33:00.808Z,18.50
2018-10-17T16:35:29.074Z,18.40
2018-10-17T16:37:58.114Z,18.20
2018-10-17T16:40:26.266Z,18.00
2018-10-17T16:42:54.505Z,17.90
2018-10-17T16:45:22.708Z,17.80
2018-10-17T16:47:50.901Z,17.70
2018-10-17T16:50:19.138Z,17.50
2018-10-17T16:52:47.198Z,17.50
2018-10-17T16:55:15.469Z,17.40
2018-10-17T16:57:43.651Z,17.30
2018-10-17T17:00:12.263Z,17.10
2018-10-17T17:02:40.436Z,17.00
2018-10-17T17:05:13.915Z,16.80
2018-10-17T17:07:42.212Z,16.80
2018-10-17T17:10:13.393Z,16.70
2018-10-17T17:12:41.546Z,16.50
2018-10-17T17:15:10.072Z,16.40
2018-10-17T17:17:38.244Z,16.20
2018-10-17T17:20:08.788Z,16.20
2018-10-17T17:22:37.455Z,16.10
2018-10-17T17:25:06.107Z,16.10
2018-10-17T17:27:34.318Z,16.00
2018-10-17T17:30:02.576Z,15.90
2018-10-17T17:32:30.735Z,15.80
2018-10-17T17:34:58.953Z,15.80
2018-10-17T17:37:27.156Z,15.70
2018-10-17T17:39:55.358Z,15.10
2018-10-17T17:42:23.535Z,15.50
2018-10-17T17:44:51.649Z,15.60
2018-10-17T17:47:19.820Z,15.40
2018-10-17T17:49:48.122Z,15.30
2018-10-17T17:52:18.585Z,15.20
2018-10-17T17:54:46.731Z,15.20
2018-10-17T17:57:14.832Z,15.10
2018-10-17T17:59:43.087Z,15.10
2018-10-17T18:02:11.289Z,15.00
2018-10-17T18:04:39.500Z,14.90
2018-10-17T18:07:07.706Z,14.80
2018-10-17T18:09:35.859Z,14.80
2018-10-17T18:12:04.395Z,14.70
2018-10-17T18:14:32.543Z,14.70
2018-10-17T18:17:00.739Z,14.60
2018-10-17T18:19:28.843Z,14.60
2018-10-17T18:21:57.055Z,13.90
2018-10-17T18:24:25.155Z,14.50
2018-10-17T18:26:53.333Z,13.90
2018-10-17T18:29:21.680Z,14.20
2018-10-17T18:31:49.851Z,14.20
2018-10-17T18:34:18.017Z,13.70
2018-10-17T18:36:46.129Z,14.20
2018-10-17T18:39:14.320Z,14.10
2018-10-17T18:41:42.461Z,14.00
2018-10-17T18:44:11.376Z,14.00
2018-10-17T18:46:39.582Z,13.90
2018-10-17T18:49:07.753Z,13.90
2018-10-17T18:51:35.869Z,13.90
2018-10-17T18:54:04.405Z,13.70
2018-10-17T18:56:32.687Z,13.70
2018-10-17T18:59:00.827Z,13.70
2018-10-17T19:01:29.010Z,13.60
2018-10-17T19:03:57.251Z,13.60
2018-10-17T19:06:25.482Z,13.60
2018-10-17T19:08:53.716Z,13.50
2018-10-17T19:11:21.990Z,13.50
2018-10-17T19:13:50.238Z,13.50
2018-10-17T19:16:18.468Z,13.40
2018-10-17T19:18:46.561Z,13.30
2018-10-17T19:21:14.722Z,13.30
2018-10-17T19:23:43.064Z,13.20
2018-10-17T19:26:11.164Z,13.20
2018-10-17T19:28:39.324Z,13.10
2018-10-17T19:31:07.510Z,13.10
2018-10-17T19:33:35.634Z,13.00
2018-10-17T19:36:03.916Z,13.00
2018-10-17T19:38:31.964Z,13.60
2018-10-17T19:41:00.167Z,12.90
2018-10-17T19:43:28.414Z,12.80
2018-10-17T19:45:56.555Z,12.80
2018-10-17T19:48:24.756Z,12.80
2018-10-17T19:50:58.792Z,12.90
2018-10-17T19:53:26.935Z,12.80
2018-10-17T19:55:55.160Z,12.80
2018-10-17T19:58:23.315Z,12.70
2018-10-17T20:00:51.442Z,12.70
2018-10-17T20:03:19.736Z,12.70
2018-10-17T20:05:47.954Z,12.60
2018-10-17T20:08:16.089Z,12.60
2018-10-17T20:10:44.484Z,12.60
2018-10-17T20:13:12.661Z,12.60
2018-10-17T20:15:40.851Z,12.50
2018-10-17T20:18:09.120Z,12.50
2018-10-17T20:20:37.245Z,12.50
2018-10-17T20:23:05.665Z,12.40
2018-10-17T20:25:33.858Z,12.50
2018-10-17T20:28:02.060Z,12.40
2018-10-17T20:30:30.316Z,12.40
2018-10-17T20:32:58.515Z,12.40
2018-10-17T20:35:26.690Z,12.20
2018-10-17T20:37:54.897Z,12.10
2018-10-17T20:40:23.127Z,12.10
2018-10-17T20:42:51.341Z,12.10
2018-10-17T20:45:19.528Z,12.00
2018-10-17T20:47:47.684Z,11.90
2018-10-17T20:50:16.195Z,11.90
2018-10-17T20:52:44.330Z,11.90
2018-10-17T20:55:12.482Z,11.80
2018-10-17T20:57:40.595Z,11.80
2018-10-17T21:00:08.868Z,11.80
2018-10-17T21:02:37.079Z,11.70
2018-10-17T21:05:06.683Z,11.70
2018-10-17T21:07:35.153Z,11.50
2018-10-17T21:10:03.405Z,11.80
2018-10-17T21:12:31.586Z,11.60
2018-10-17T21:14:59.699Z,11.60
2018-10-17T21:17:27.832Z,11.50
2018-10-17T21:19:56.122Z,11.30
2018-10-17T21:22:24.243Z,11.50
2018-10-17T21:24:52.456Z,11.40
2018-10-17T21:27:20.704Z,11.50
2018-10-17T21:29:48.863Z,11.40
2018-10-17T21:32:17.226Z,12.50
2018-10-17T21:34:45.278Z,11.50
2018-10-17T21:37:13.440Z,11.50
2018-10-17T21:39:41.648Z,11.40
2018-10-17T21:42:09.804Z,11.20
2018-10-17T21:44:37.982Z,11.40
2018-10-17T21:47:06.356Z,11.40
2018-10-17T21:49:34.536Z,11.40
2018-10-17T21:52:02.696Z,11.40
2018-10-17T21:54:31.629Z,11.40
2018-10-17T21:56:59.794Z,11.30
2018-10-17T21:59:27.976Z,11.20
2018-10-17T22:01:56.183Z,11.20
2018-10-17T22:04:24.330Z,11.10
2018-10-17T22:06:52.430Z,11.00
2018-10-17T22:09:20.881Z,11.00
2018-10-17T22:11:49.047Z,11.00
2018-10-17T22:14:17.277Z,11.00
2018-10-17T22:16:51.021Z,11.00
2018-10-17T22:19:21.139Z,11.00
2018-10-17T22:21:49.143Z,11.00
2018-10-17T22:24:17.339Z,10.90
2018-10-17T22:26:45.519Z,10.90
2018-10-17T22:29:13.751Z,10.80
2018-10-17T22:31:41.905Z,10.80
2018-10-17T22:34:10.115Z,10.80
2018-10-17T22:36:38.305Z,10.50
2018-10-17T22:39:11.256Z,10.60
2018-10-17T22:41:39.409Z,11.00
2018-10-17T22:44:07.718Z,10.60
2018-10-17T22:46:35.810Z,10.70
2018-10-17T22:49:04.642Z,10.60
2018-10-17T22:51:32.745Z,10.50
2018-10-17T22:54:00.923Z,10.50
2018-10-17T22:56:29.133Z,10.50
2018-10-17T22:58:57.367Z,10.50
2018-10-17T23:01:25.518Z,10.50
2018-10-17T23:03:54.962Z,10.50
2018-10-17T23:06:23.087Z,10.50
2018-10-17T23:08:51.248Z,10.50
2018-10-17T23:11:19.414Z,10.40
2018-10-17T23:13:47.573Z,10.40
2018-10-17T23:16:15.766Z,10.40
2018-10-17T23:18:43.959Z,10.30
2018-10-17T23:21:12.126Z,10.30
2018-10-17T23:23:40.376Z,10.30
2018-10-17T23:26:08.854Z,10.30
2018-10-17T23:28:37.148Z,10.30
2018-10-17T23:31:05.328Z,10.20
2018-10-17T23:33:33.490Z,10.20
2018-10-17T23:36:01.655Z,10.20
2018-10-17T23:38:29.911Z,9.80
2018-10-17T23:40:58.012Z,10.10
2018-10-17T23:43:26.233Z,10.10
2018-10-17T23:45:54.371Z,10.00
2018-10-17T23:48:22.534Z,10.00
2018-10-17T23:50:50.694Z,10.00
2018-10-17T23:53:18.872Z,10.00
2018-10-17T23:55:47.159Z,9.90
2018-10-17T23:58:15.347Z,9.90
